createdAt,value
2023-03-06T00:00:30.236Z,-4.00
2023-03-06T00:03:20.273Z,-4.50
2023-03-06T00:06:10.694Z,-4.10
2023-03-06T00:09:00.340Z,-4.20
2023-03-06T00:11:51.801Z,-4.60
2023-03-06T00:14:41.670Z,-4.20
2023-03-06T00:17:31.292Z,-4.10
2023-03-06T00:20:21.553Z,-4.10
2023-03-06T00:23:11.627Z,-4.30
2023-03-06T00:26:01.496Z,-4.40
2023-03-06T00:28:52.887Z,-4.40
2023-03-06T00:31:46.658Z,-4.60
2023-03-06T00:34:36.329Z,-4.50
2023-03-06T00:37:26.978Z,-4.70
2023-03-06T00:40:19.523Z,-4.60
2023-03-06T00:43:09.414Z,-4.70
2023-03-06T00:46:00.852Z,-4.60
2023-03-06T00:48:50.612Z,-4.80
2023-03-06T00:51:40.233Z,-4.70
2023-03-06T00:54:29.885Z,-4.80
2023-03-06T00:57:19.624Z,-4.90
2023-03-06T01:00:11.276Z,-4.90
2023-03-06T01:03:02.787Z,-5.00
2023-03-06T01:05:52.434Z,-5.00
2023-03-06T01:08:42.227Z,-4.90
2023-03-06T01:11:31.816Z,-4.90
2023-03-06T01:14:21.954Z,-5.30
2023-03-06T01:17:11.624Z,-5.10
2023-03-06T01:20:03.018Z,-5.00
2023-03-06T01:22:53.038Z,-5.30
2023-03-06T01:25:42.839Z,-5.20
2023-03-06T01:28:34.551Z,-5.30
2023-03-06T01:31:24.436Z,-5.10
2023-03-06T01:34:14.321Z,-5.30
2023-03-06T01:37:06.403Z,-5.20
2023-03-06T01:39:56.080Z,-5.20
2023-03-06T01:42:46.849Z,-5.20
2023-03-06T01:46:14.227Z,-5.40
2023-03-06T01:49:09.413Z,-5.30
2023-03-06T01:52:04.005Z,-5.40
2023-03-06T01:54:58.437Z,-5.30
2023-03-06T01:57:53.320Z,-5.50
2023-03-06T02:00:42.896Z,-5.40
2023-03-06T02:03:33.548Z,-5.60
2023-03-06T02:06:23.198Z,-5.40
2023-03-06T02:09:15.276Z,-5.30
2023-03-06T02:12:23.641Z,-5.50
2023-03-06T02:15:17.165Z,-5.40
2023-03-06T02:18:07.037Z,-5.60
2023-03-06T02:20:59.744Z,-5.50
2023-03-06T02:23:59.950Z,-5.70
2023-03-06T02:26:51.751Z,-5.60
2023-03-06T02:29:42.096Z,-5.60
2023-03-06T02:32:31.805Z,-5.50
2023-03-06T02:35:23.103Z,-5.60
2023-03-06T02:38:15.660Z,-5.70
2023-03-06T02:41:08.816Z,-5.50
2023-03-06T02:44:00.254Z,-5.70
2023-03-06T02:46:50.224Z,-5.90
2023-03-06T02:49:39.790Z,-5.80
2023-03-06T02:52:29.367Z,-5.80
2023-03-06T02:55:19.032Z,-5.70
2023-03-06T02:58:09.465Z,-6.10
2023-03-06T03:01:00.531Z,-5.70
2023-03-06T03:03:50.374Z,-5.60
2023-03-06T03:06:39.877Z,-5.50
2023-03-06T03:09:30.124Z,-5.50
2023-03-06T03:12:19.969Z,-5.60
2023-03-06T03:15:10.881Z,-5.60
2023-03-06T03:18:01.917Z,-5.70
2023-03-06T03:20:51.845Z,-5.70
2023-03-06T03:23:42.386Z,-5.50
2023-03-06T03:26:32.087Z,-5.70
2023-03-06T03:29:22.207Z,-5.50
2023-03-06T03:32:11.921Z,-5.80
2023-03-06T03:35:03.867Z,-5.50
2023-03-06T03:37:55.049Z,-5.70
2023-03-06T03:40:44.972Z,-5.50
2023-03-06T03:43:34.989Z,-5.50
2023-03-06T03:46:24.611Z,-5.50
2023-03-06T03:49:14.361Z,-5.40
2023-03-06T03:52:05.830Z,-5.50
2023-03-06T03:54:55.713Z,-5.50
2023-03-06T03:57:45.616Z,-5.60
2023-03-06T04:00:35.281Z,-5.70
2023-03-06T04:03:25.329Z,-5.50
2023-03-06T04:06:15.487Z,-5.50
2023-03-06T04:09:07.499Z,-5.60
2023-03-06T04:11:57.254Z,-5.50
2023-03-06T04:14:47.310Z,-5.40
2023-03-06T04:17:37.285Z,-5.40
2023-03-06T04:20:26.946Z,-5.30
2023-03-06T04:23:17.589Z,-5.30
2023-03-06T04:26:09.051Z,-5.50
2023-03-06T04:28:59.189Z,-5.50
2023-03-06T04:31:49.141Z,-5.20
2023-03-06T04:34:39.295Z,-5.40
2023-03-06T04:37:29.171Z,-5.40
2023-03-06T04:40:21.148Z,-5.40
2023-03-06T04:43:12.716Z,-5.30
2023-03-06T04:46:02.425Z,-5.20
2023-03-06T04:48:52.431Z,-5.20
2023-03-06T04:51:42.268Z,-5.40
2023-03-06T04:54:32.001Z,-5.50
2023-03-06T04:57:21.557Z,-5.50
2023-03-06T05:00:17.688Z,-5.30
2023-03-06T05:03:07.328Z,-5.20
2023-03-06T05:05:56.936Z,-5.30
2023-03-06T05:08:47.186Z,-5.10
2023-03-06T05:11:37.028Z,-5.10
2023-03-06T05:14:26.729Z,-5.10
2023-03-06T05:17:18.303Z,-5.30
2023-03-06T05:20:10.339Z,-5.20
2023-03-06T05:23:00.105Z,-5.10
2023-03-06T05:25:50.022Z,-5.10
2023-03-06T05:28:40.105Z,-5.00
2023-03-06T05:31:30.241Z,-5.10
2023-03-06T05:34:28.216Z,-5.00
2023-03-06T05:37:17.954Z,-5.00
2023-03-06T05:40:10.364Z,-5.00
2023-03-06T05:42:59.912Z,-5.00
2023-03-06T05:45:50.917Z,-5.00
2023-03-06T05:48:40.776Z,-4.90
2023-03-06T05:51:32.169Z,-4.70
2023-03-06T05:54:21.608Z,-4.90
2023-03-06T05:57:11.734Z,-4.70
2023-03-06T06:00:01.252Z,-4.50
2023-03-06T06:02:51.195Z,-4.70
2023-03-06T06:05:41.906Z,-4.60
2023-03-06T06:08:33.028Z,-4.40
2023-03-06T06:11:22.733Z,-4.30
2023-03-06T06:14:12.209Z,-4.20
2023-03-06T06:17:01.755Z,-4.10
2023-03-06T06:19:51.570Z,-4.10
2023-03-06T06:22:41.290Z,-4.10
2023-03-06T06:25:32.347Z,-4.00
2023-03-06T06:28:21.825Z,-4.00
2023-03-06T06:31:12.840Z,-3.90
2023-03-06T06:34:03.907Z,-4.00
2023-03-06T06:36:54.727Z,-3.60
2023-03-06T06:39:44.593Z,-3.60
2023-03-06T06:42:39.814Z,-3.70
2023-03-06T06:45:30.156Z,-3.50
2023-03-06T06:48:19.813Z,-3.40
2023-03-06T06:51:10.089Z,-3.40
2023-03-06T06:53:59.635Z,-3.30
2023-03-06T06:56:49.715Z,-3.20
2023-03-06T06:59:40.884Z,-2.80
2023-03-06T07:02:31.076Z,-2.70
2023-03-06T07:05:22.203Z,-2.70
2023-03-06T07:08:12.253Z,-2.60
2023-03-06T07:11:07.026Z,-3.00
2023-03-06T07:13:57.683Z,-2.60
2023-03-06T07:16:49.022Z,-2.40
2023-03-06T07:19:39.624Z,-2.30
2023-03-06T07:22:35.861Z,-2.50
2023-03-06T07:25:31.577Z,-2.20
2023-03-06T07:28:21.352Z,-2.20
2023-03-06T07:31:12.588Z,-1.90
2023-03-06T07:34:05.023Z,-1.90
2023-03-06T07:36:55.172Z,-1.60
2023-03-06T07:39:45.275Z,-1.70
2023-03-06T07:42:34.992Z,-1.60
2023-03-06T07:45:25.342Z,-1.50
2023-03-06T07:48:15.912Z,-1.40
2023-03-06T07:51:08.514Z,-1.30
2023-03-06T07:53:58.375Z,-1.20
2023-03-06T07:56:48.012Z,-1.10
2023-03-06T07:59:38.108Z,-1.10
2023-03-06T08:02:27.704Z,-1.00
2023-03-06T08:05:19.497Z,-0.90
2023-03-06T08:08:11.155Z,-0.90
2023-03-06T08:11:00.613Z,-0.70
2023-03-06T08:13:53.175Z,-0.60
2023-03-06T08:16:42.920Z,-0.50
2023-03-06T08:19:32.698Z,-0.30
2023-03-06T08:22:22.674Z,-0.30
2023-03-06T08:25:15.137Z,-0.10
2023-03-06T08:28:04.892Z,0.00
2023-03-06T08:30:54.658Z,0.20
2023-03-06T08:33:44.891Z,0.30
2023-03-06T08:36:34.734Z,0.40
2023-03-06T08:39:24.514Z,0.40
2023-03-06T08:42:16.573Z,0.50
2023-03-06T08:45:07.392Z,0.40
2023-03-06T08:47:57.156Z,0.50
2023-03-06T08:50:46.834Z,0.50
2023-03-06T08:53:43.015Z,0.70
2023-03-06T08:56:34.852Z,0.80
2023-03-06T08:59:26.607Z,1.00
2023-03-06T09:02:17.137Z,0.90
2023-03-06T09:05:07.905Z,1.20
2023-03-06T09:07:57.494Z,1.30
2023-03-06T09:10:49.584Z,1.40
2023-03-06T09:13:40.208Z,1.50
2023-03-06T09:16:32.293Z,1.40
2023-03-06T09:19:21.826Z,1.60
2023-03-06T09:22:11.976Z,1.70
2023-03-06T09:25:02.034Z,1.80
2023-03-06T09:28:08.732Z,1.80
2023-03-06T09:31:01.170Z,1.70
2023-03-06T09:33:52.436Z,1.60
2023-03-06T09:36:56.151Z,1.60
2023-03-06T09:39:47.543Z,1.70
2023-03-06T09:42:37.153Z,1.60
2023-03-06T09:45:27.007Z,1.60
2023-03-06T09:48:18.689Z,1.70
2023-03-06T09:51:16.630Z,1.90
2023-03-06T09:54:13.927Z,2.00
2023-03-06T09:57:04.746Z,2.00
2023-03-06T09:59:58.525Z,2.10
2023-03-06T10:02:52.292Z,2.00
2023-03-06T10:05:45.388Z,2.00
2023-03-06T10:08:48.764Z,2.00
2023-03-06T10:11:45.514Z,2.00
2023-03-06T10:14:39.984Z,2.00
2023-03-06T10:17:35.696Z,2.10
2023-03-06T10:20:28.455Z,2.20
2023-03-06T10:23:44.690Z,2.00
2023-03-06T10:26:39.894Z,2.00
2023-03-06T10:29:43.689Z,1.90
2023-03-06T10:32:49.840Z,1.80
2023-03-06T10:35:49.093Z,2.00
2023-03-06T10:38:39.258Z,2.30
2023-03-06T10:41:32.251Z,2.60
2023-03-06T10:44:26.534Z,3.20
2023-03-06T10:47:32.169Z,3.80
2023-03-06T10:50:26.906Z,3.90
2023-03-06T10:53:25.965Z,4.10
2023-03-06T10:56:27.309Z,4.30
2023-03-06T10:59:20.359Z,4.40
2023-03-06T11:02:28.072Z,4.80
2023-03-06T11:05:22.189Z,5.00
2023-03-06T11:08:23.306Z,4.80
2023-03-06T11:11:18.493Z,4.50
2023-03-06T11:14:20.102Z,4.40
2023-03-06T11:17:29.648Z,4.30
2023-03-06T11:20:21.662Z,4.30
2023-03-06T11:23:17.973Z,4.30
2023-03-06T11:26:27.494Z,4.40
2023-03-06T11:29:39.046Z,4.90
2023-03-06T11:32:32.812Z,4.60
2023-03-06T11:35:25.826Z,4.00
2023-03-06T11:38:19.087Z,3.50
2023-03-06T11:41:17.825Z,3.30
2023-03-06T11:44:20.650Z,3.20
2023-03-06T11:47:19.064Z,3.10
2023-03-06T11:50:20.096Z,2.80
2023-03-06T11:53:13.932Z,2.60
2023-03-06T11:56:13.217Z,2.50
2023-03-06T11:59:23.550Z,2.50
2023-03-06T12:02:24.763Z,2.40
2023-03-06T12:05:33.426Z,2.30
2023-03-06T12:08:39.550Z,2.40
2023-03-06T12:11:36.066Z,2.60
2023-03-06T12:14:40.818Z,2.60
2023-03-06T12:17:47.880Z,2.60
2023-03-06T12:20:49.358Z,2.60
2023-03-06T12:24:03.016Z,2.60
2023-03-06T12:27:07.677Z,2.60
2023-03-06T12:30:23.214Z,2.70
2023-03-06T12:33:24.615Z,3.00
2023-03-06T12:36:27.002Z,3.20
2023-03-06T12:39:24.770Z,3.40
2023-03-06T12:42:32.014Z,3.40
2023-03-06T12:45:32.071Z,3.60
2023-03-06T12:48:27.521Z,3.80
2023-03-06T12:51:19.800Z,3.90
2023-03-06T12:54:12.491Z,4.20
2023-03-06T12:57:03.500Z,4.40
2023-03-06T12:59:53.774Z,4.70
2023-03-06T13:03:06.109Z,5.30
2023-03-06T13:06:09.193Z,5.40
2023-03-06T13:09:10.812Z,5.60
2023-03-06T13:12:21.520Z,5.80
2023-03-06T13:15:37.874Z,6.10
2023-03-06T13:19:00.541Z,6.20
2023-03-06T13:22:28.512Z,5.90
2023-03-06T13:25:48.679Z,5.70
2023-03-06T13:28:45.351Z,5.40
2023-03-06T13:32:09.655Z,5.20
2023-03-06T13:34:59.402Z,5.00
2023-03-06T13:37:54.426Z,4.90
2023-03-06T13:40:44.153Z,4.60
2023-03-06T13:43:45.053Z,4.50
2023-03-06T13:46:37.655Z,4.50
2023-03-06T13:49:27.991Z,4.60
2023-03-06T13:52:33.412Z,4.70
2023-03-06T13:55:32.915Z,4.70
2023-03-06T13:58:38.227Z,4.90
2023-03-06T14:01:44.110Z,5.20
2023-03-06T14:04:45.412Z,5.10
2023-03-06T14:07:37.089Z,5.00
2023-03-06T14:10:29.446Z,4.90
2023-03-06T14:13:24.286Z,4.90
2023-03-06T14:16:22.038Z,4.70
2023-03-06T14:19:18.557Z,4.70
2023-03-06T14:22:14.705Z,4.60
2023-03-06T14:25:09.564Z,4.60
2023-03-06T14:28:13.550Z,4.40
2023-03-06T14:31:05.989Z,4.10
2023-03-06T14:33:57.990Z,3.90
2023-03-06T14:36:50.022Z,3.60
2023-03-06T14:39:42.651Z,3.50
2023-03-06T14:42:32.361Z,3.40
2023-03-06T14:45:25.450Z,3.40
2023-03-06T14:48:17.051Z,3.40
2023-03-06T14:51:07.689Z,3.40
2023-03-06T14:54:04.031Z,3.50
2023-03-06T14:56:56.931Z,3.50
2023-03-06T14:59:51.172Z,3.50
2023-03-06T15:02:42.409Z,3.40
2023-03-06T15:05:33.482Z,3.20
2023-03-06T15:08:27.421Z,3.20
2023-03-06T15:11:17.459Z,3.10
2023-03-06T15:14:07.696Z,3.00
2023-03-06T15:16:57.965Z,3.00
2023-03-06T15:19:51.002Z,2.90
2023-03-06T15:22:42.442Z,2.90
2023-03-06T15:25:33.816Z,2.90
2023-03-06T15:28:34.378Z,2.70
2023-03-06T15:31:29.204Z,2.60
2023-03-06T15:34:24.024Z,2.50
2023-03-06T15:37:30.305Z,2.40
2023-03-06T15:40:21.930Z,2.20
2023-03-06T15:43:13.124Z,2.10
2023-03-06T15:46:06.834Z,1.90
2023-03-06T15:49:01.162Z,1.80
2023-03-06T15:51:52.717Z,1.70
2023-03-06T15:54:44.018Z,1.70
2023-03-06T15:57:34.264Z,1.60
2023-03-06T16:00:42.799Z,1.50
2023-03-06T16:03:32.909Z,1.40
2023-03-06T16:06:24.793Z,1.20
2023-03-06T16:09:15.471Z,1.10
2023-03-06T16:12:08.400Z,1.00
2023-03-06T16:14:59.534Z,0.80
2023-03-06T16:17:50.308Z,0.70
2023-03-06T16:20:42.066Z,0.60
2023-03-06T16:23:32.424Z,0.40
2023-03-06T16:26:30.983Z,0.30
2023-03-06T16:29:24.040Z,0.10
2023-03-06T16:32:14.794Z,-0.10
2023-03-06T16:35:05.738Z,-0.30
2023-03-06T16:37:59.587Z,-0.40
2023-03-06T16:40:51.348Z,-0.60
2023-03-06T16:43:41.729Z,-0.70
2023-03-06T16:46:34.870Z,-0.80
2023-03-06T16:49:27.325Z,-0.90
2023-03-06T16:52:18.552Z,-1.00
2023-03-06T16:55:13.406Z,-1.10
2023-03-06T16:58:03.741Z,-1.10
2023-03-06T17:00:54.984Z,-1.20
2023-03-06T17:03:48.090Z,-1.20
2023-03-06T17:06:39.176Z,-1.20
2023-03-06T17:09:30.044Z,-1.20
2023-03-06T17:12:22.166Z,-1.20
2023-03-06T17:15:13.564Z,-1.20
2023-03-06T17:18:04.506Z,-1.20
2023-03-06T17:21:01.142Z,-1.10
2023-03-06T17:23:52.504Z,-1.10
2023-03-06T17:26:44.883Z,-1.00
2023-03-06T17:29:35.860Z,-0.90
2023-03-06T17:32:27.708Z,-0.80
2023-03-06T17:35:17.916Z,-0.80
2023-03-06T17:38:09.228Z,-0.70
2023-03-06T17:41:04.330Z,-0.70
2023-03-06T17:43:57.396Z,-0.70
2023-03-06T17:46:48.626Z,-0.70
2023-03-06T17:49:39.235Z,-0.70
2023-03-06T17:52:32.955Z,-0.60
2023-03-06T17:55:25.069Z,-0.60
2023-03-06T17:58:16.431Z,-0.50
2023-03-06T18:01:17.422Z,-0.40
2023-03-06T18:04:10.067Z,-0.40
2023-03-06T18:07:02.667Z,-0.30
2023-03-06T18:09:53.800Z,-0.40
2023-03-06T18:12:49.243Z,-0.40
2023-03-06T18:15:42.745Z,-0.40
2023-03-06T18:18:33.980Z,-0.40
2023-03-06T18:21:25.884Z,-0.40
2023-03-06T18:24:17.895Z,-0.40
2023-03-06T18:27:08.374Z,-0.40
2023-03-06T18:30:01.586Z,-0.40
2023-03-06T18:32:56.920Z,-0.40
2023-03-06T18:35:49.155Z,-0.40
2023-03-06T18:38:44.835Z,-0.60
2023-03-06T18:41:36.274Z,-0.50
2023-03-06T18:44:27.192Z,-0.50
2023-03-06T18:47:21.315Z,-0.60
2023-03-06T18:50:18.752Z,-0.70
2023-03-06T18:53:13.108Z,-0.90
2023-03-06T18:56:07.554Z,-1.00
2023-03-06T18:58:59.215Z,-1.10
2023-03-06T19:01:50.750Z,-1.20
2023-03-06T19:04:43.811Z,-1.30
2023-03-06T19:07:36.686Z,-1.40
2023-03-06T19:10:31.674Z,-1.80
2023-03-06T19:13:23.371Z,-1.50
2023-03-06T19:16:21.505Z,-1.50
2023-03-06T19:19:12.587Z,-1.50
2023-03-06T19:22:07.883Z,-1.50
2023-03-06T19:25:03.806Z,-1.20
2023-03-06T19:28:02.454Z,-1.40
2023-03-06T19:30:53.996Z,-1.40
2023-03-06T19:33:50.178Z,-1.60
2023-03-06T19:36:41.794Z,-1.30
2023-03-06T19:39:39.360Z,-1.40
2023-03-06T19:42:34.199Z,-1.60
2023-03-06T19:45:26.218Z,-1.10
2023-03-06T19:48:18.210Z,-1.60
2023-03-06T19:51:12.301Z,-1.00
2023-03-06T19:54:03.446Z,-1.20
2023-03-06T19:56:57.498Z,-1.10
2023-03-06T19:59:58.575Z,-1.30
2023-03-06T20:02:50.879Z,-1.40
2023-03-06T20:05:49.428Z,-1.40
2023-03-06T20:08:40.991Z,-1.60
2023-03-06T20:11:33.594Z,-1.40
2023-03-06T20:14:26.624Z,-1.30
2023-03-06T20:17:17.991Z,-1.30
2023-03-06T20:20:13.728Z,-1.50
2023-03-06T20:23:05.940Z,-1.30
2023-03-06T20:25:56.635Z,-1.30
2023-03-06T20:28:47.273Z,-1.30
2023-03-06T20:31:39.324Z,-1.30
2023-03-06T20:34:31.355Z,-1.40
2023-03-06T20:37:22.951Z,-1.20
2023-03-06T20:40:16.721Z,-1.30
2023-03-06T20:43:08.204Z,-1.30
2023-03-06T20:46:01.193Z,-1.20
2023-03-06T20:48:54.999Z,-1.30
2023-03-06T20:51:46.831Z,-1.40
2023-03-06T20:54:37.866Z,-1.20
2023-03-06T20:57:28.778Z,-1.20
2023-03-06T21:00:20.046Z,-1.40
2023-03-06T21:03:11.044Z,-1.30
2023-03-06T21:06:03.132Z,-1.30
2023-03-06T21:08:54.197Z,-1.20
2023-03-06T21:11:45.546Z,-1.20
2023-03-06T21:14:35.323Z,-1.30
2023-03-06T21:17:26.750Z,-1.70
2023-03-06T21:20:17.281Z,-1.90
2023-03-06T21:23:10.796Z,-2.00
2023-03-06T21:26:00.969Z,-2.40
2023-03-06T21:28:52.618Z,-2.10
2023-03-06T21:31:42.811Z,-2.20
2023-03-06T21:34:33.991Z,-2.40
2023-03-06T21:40:50.063Z,-2.50
2023-03-06T21:43:41.202Z,-2.60
2023-03-06T21:46:31.225Z,-2.60
2023-03-06T21:49:23.652Z,-2.60
2023-03-06T21:52:13.354Z,-2.80
2023-03-06T21:55:03.621Z,-2.70
2023-03-06T21:57:55.262Z,-2.80
2023-03-06T22:00:45.332Z,-2.70
2023-03-06T22:03:34.917Z,-2.90
2023-03-06T22:06:26.623Z,-2.80
2023-03-06T22:09:19.499Z,-2.90
2023-03-06T22:12:09.405Z,-2.70
2023-03-06T22:15:00.535Z,-2.90
2023-03-06T22:17:50.046Z,-2.80
2023-03-06T22:20:42.160Z,-2.60
2023-03-06T22:23:31.935Z,-2.30
2023-03-06T22:26:22.246Z,-2.30
2023-03-06T22:29:14.589Z,-2.30
2023-03-06T22:32:06.162Z,-2.40
2023-03-06T22:34:55.842Z,-2.20
2023-03-06T22:37:45.433Z,-2.10
2023-03-06T22:40:35.946Z,-2.00
2023-03-06T22:43:25.865Z,-1.90
2023-03-06T22:46:17.936Z,-2.00
2023-03-06T22:49:09.163Z,-2.00
2023-03-06T22:51:58.586Z,-1.90
2023-03-06T22:54:48.749Z,-1.90
2023-03-06T22:57:38.224Z,-2.00
2023-03-06T23:00:27.681Z,-1.90
2023-03-06T23:03:17.233Z,-1.90
2023-03-06T23:06:15.068Z,-1.60
2023-03-06T23:09:09.047Z,-1.80
2023-03-06T23:11:59.109Z,-1.50
2023-03-06T23:14:51.486Z,-1.80
2023-03-06T23:17:41.087Z,-2.20
2023-03-06T23:20:30.902Z,-1.80
2023-03-06T23:23:22.893Z,-1.70
2023-03-06T23:26:14.833Z,-1.70
2023-03-06T23:29:05.131Z,-1.60
2023-03-06T23:31:55.088Z,-1.50
2023-03-06T23:34:44.670Z,-1.40
2023-03-06T23:37:34.530Z,-1.60
2023-03-06T23:40:25.569Z,-1.60
2023-03-06T23:43:15.412Z,-1.70
2023-03-06T23:46:05.414Z,-1.70
2023-03-06T23:48:55.172Z,-2.20
2023-03-06T23:51:44.674Z,-2.00
2023-03-06T23:54:34.985Z,-2.00
2023-03-06T23:57:26.264Z,-1.90
